createdAt,value
2017-12-19T00:01:04.694Z,64.50
2017-12-19T00:03:31.677Z,65.90
2017-12-19T00:05:57.884Z,65.80
2017-12-19T00:08:24.799Z,66.30
2017-12-19T00:10:51.061Z,66.20
2017-12-19T00:13:17.287Z,66.10
2017-12-19T00:15:43.536Z,66.10
2017-12-19T00:18:09.755Z,65.30
2017-12-19T00:20:36.030Z,65.70
2017-12-19T00:23:02.362Z,65.30
2017-12-19T00:25:28.595Z,65.80
2017-12-19T00:27:54.785Z,65.70
2017-12-19T00:30:21.009Z,65.50
2017-12-19T00:32:47.186Z,65.10
2017-12-19T00:35:13.425Z,66.10
2017-12-19T00:37:39.653Z,64.50
2017-12-19T00:40:05.802Z,66.00
2017-12-19T00:42:32.667Z,65.80
2017-12-19T00:44:58.843Z,65.90
2017-12-19T00:47:25.056Z,65.40
2017-12-19T00:49:51.218Z,65.60
2017-12-19T00:52:18.189Z,65.40
2017-12-19T00:54:44.421Z,65.40
2017-12-19T00:57:10.623Z,65.20
2017-12-19T00:59:37.591Z,65.50
2017-12-19T01:02:03.866Z,65.50
2017-12-19T01:04:30.045Z,64.70
2017-12-19T01:06:56.226Z,66.10
2017-12-19T01:09:22.449Z,65.10
2017-12-19T01:11:48.631Z,65.00
2017-12-19T01:14:14.910Z,66.50
2017-12-19T01:16:41.176Z,66.10
2017-12-19T01:19:07.380Z,65.80
2017-12-19T01:21:34.335Z,65.60
2017-12-19T01:24:01.247Z,65.50
2017-12-19T01:26:27.467Z,65.50
2017-12-19T01:28:53.704Z,66.40
2017-12-19T01:31:19.902Z,66.60
2017-12-19T01:33:46.075Z,66.50
2017-12-19T01:36:12.253Z,65.40
2017-12-19T01:38:38.435Z,65.80
2017-12-19T01:41:05.397Z,65.80
2017-12-19T01:43:31.648Z,65.80
2017-12-19T01:45:57.843Z,65.90
2017-12-19T01:48:25.084Z,66.30
2017-12-19T01:50:51.268Z,66.30
2017-12-19T01:53:17.424Z,65.80
2017-12-19T01:55:43.593Z,65.90
2017-12-19T01:58:09.768Z,65.70
2017-12-19T02:00:40.179Z,65.50
2017-12-19T02:03:06.658Z,65.10
2017-12-19T02:05:32.856Z,66.10
2017-12-19T02:07:59.066Z,67.00
2017-12-19T02:10:25.296Z,66.20
2017-12-19T02:12:51.563Z,66.50
2017-12-19T02:15:17.802Z,66.10
2017-12-19T02:17:44.803Z,66.20
2017-12-19T02:20:11.032Z,66.20
2017-12-19T02:22:37.300Z,66.20
2017-12-19T02:25:04.292Z,65.60
2017-12-19T02:27:30.568Z,65.60
2017-12-19T02:29:56.798Z,65.80
2017-12-19T02:32:23.024Z,65.50
2017-12-19T02:34:49.532Z,65.60
2017-12-19T02:37:15.688Z,65.60
2017-12-19T02:39:41.940Z,65.20
2017-12-19T02:42:08.973Z,66.00
2017-12-19T02:44:35.983Z,65.10
2017-12-19T02:47:02.153Z,65.10
2017-12-19T02:49:29.110Z,66.20
2017-12-19T02:51:55.365Z,66.10
2017-12-19T02:54:21.582Z,65.90
2017-12-19T02:56:47.798Z,66.00
2017-12-19T02:59:14.000Z,65.50
2017-12-19T03:01:40.219Z,64.70
2017-12-19T03:04:06.507Z,65.30
2017-12-19T03:06:32.761Z,65.70
2017-12-19T03:08:59.045Z,65.00
2017-12-19T03:11:25.316Z,65.50
2017-12-19T03:13:51.515Z,66.10
2017-12-19T03:16:17.711Z,65.80
2017-12-19T03:18:43.950Z,64.30
2017-12-19T03:21:10.135Z,66.00
2017-12-19T03:23:36.329Z,65.90
2017-12-19T03:26:02.524Z,66.20
2017-12-19T03:28:29.492Z,65.60
2017-12-19T03:30:55.709Z,65.70
2017-12-19T03:33:22.664Z,64.10
2017-12-19T03:35:48.894Z,64.10
2017-12-19T03:38:15.098Z,64.10
2017-12-19T03:40:42.118Z,65.40
2017-12-19T03:43:08.351Z,65.40
2017-12-19T03:45:34.606Z,65.30
2017-12-19T03:48:01.596Z,66.50
2017-12-19T03:50:27.858Z,66.50
2017-12-19T03:52:54.132Z,66.30
2017-12-19T03:55:20.617Z,66.80
2017-12-19T03:57:46.855Z,64.60
2017-12-19T04:00:13.841Z,65.10
2017-12-19T04:02:40.084Z,65.30
2017-12-19T04:05:06.345Z,66.00
2017-12-19T04:07:32.568Z,66.50
2017-12-19T04:09:58.859Z,66.10
2017-12-19T04:12:25.052Z,65.80
2017-12-19T04:14:51.225Z,65.50
2017-12-19T04:17:17.418Z,66.00
2017-12-19T04:19:44.355Z,65.10
2017-12-19T04:22:11.314Z,65.10
2017-12-19T04:24:37.499Z,65.10
2017-12-19T04:27:03.757Z,65.50
2017-12-19T04:29:30.736Z,66.10
2017-12-19T04:31:56.962Z,66.10
2017-12-19T04:34:23.168Z,66.50
2017-12-19T04:36:49.328Z,65.70
2017-12-19T04:39:15.583Z,65.90
2017-12-19T04:41:41.838Z,66.00
2017-12-19T04:44:08.746Z,66.60
2017-12-19T04:46:34.985Z,66.60
2017-12-19T04:49:01.214Z,66.30
2017-12-19T04:51:27.431Z,66.00
2017-12-19T04:53:53.631Z,65.90
2017-12-19T04:56:19.858Z,65.80
2017-12-19T04:58:46.091Z,66.30
2017-12-19T05:01:12.300Z,66.10
2017-12-19T05:03:39.228Z,67.30
2017-12-19T05:06:06.168Z,67.90
2017-12-19T05:08:33.120Z,67.00
2017-12-19T05:11:00.639Z,66.20
2017-12-19T05:13:26.888Z,66.20
2017-12-19T05:15:53.156Z,67.30
2017-12-19T05:18:19.395Z,67.40
2017-12-19T05:20:45.743Z,67.10
2017-12-19T05:23:12.023Z,67.00
2017-12-19T05:25:39.014Z,65.90
2017-12-19T05:28:05.307Z,65.90
2017-12-19T05:30:32.315Z,67.20
2017-12-19T05:32:58.583Z,67.10
2017-12-19T05:35:25.593Z,67.70
2017-12-19T05:37:51.839Z,67.70
2017-12-19T05:40:18.093Z,66.90
2017-12-19T05:42:44.377Z,66.90
2017-12-19T05:45:10.982Z,67.70
2017-12-19T05:47:37.406Z,67.00
2017-12-19T05:50:03.607Z,68.20
2017-12-19T05:52:31.017Z,68.00
2017-12-19T05:54:58.202Z,68.80
2017-12-19T05:57:24.470Z,68.90
2017-12-19T05:59:50.719Z,68.10
2017-12-19T06:02:22.489Z,68.20
2017-12-19T06:04:48.724Z,68.80
2017-12-19T06:07:19.605Z,68.40
2017-12-19T06:09:46.537Z,69.00
2017-12-19T06:12:15.185Z,68.80
2017-12-19T06:14:55.421Z,68.80
2017-12-19T06:17:42.855Z,68.80
2017-12-19T06:20:11.032Z,68.90
2017-12-19T06:22:38.044Z,67.80
2017-12-19T06:25:04.991Z,68.10
2017-12-19T06:27:31.558Z,68.10
2017-12-19T06:29:57.759Z,67.90
2017-12-19T06:32:24.008Z,68.40
2017-12-19T06:34:50.252Z,67.80
2017-12-19T06:37:16.482Z,67.30
2017-12-19T06:39:42.680Z,68.10
2017-12-19T06:42:08.918Z,67.70
2017-12-19T06:44:43.654Z,67.90
2017-12-19T06:47:12.830Z,67.50
2017-12-19T06:49:39.073Z,68.20
2017-12-19T06:52:05.270Z,67.30
2017-12-19T06:54:32.281Z,68.70
2017-12-19T06:56:58.571Z,68.70
2017-12-19T06:59:24.759Z,68.00
2017-12-19T07:01:51.033Z,68.00
2017-12-19T07:04:17.313Z,68.00
2017-12-19T07:06:43.523Z,67.50
2017-12-19T07:09:09.753Z,68.50
2017-12-19T07:11:35.916Z,68.20
2017-12-19T07:14:02.094Z,67.90
2017-12-19T07:16:28.321Z,68.00
2017-12-19T07:18:54.591Z,67.60
2017-12-19T07:21:21.553Z,66.30
2017-12-19T07:23:47.815Z,66.30
2017-12-19T07:26:14.056Z,66.40
2017-12-19T07:28:40.290Z,66.60
2017-12-19T07:31:06.528Z,67.30
2017-12-19T07:33:32.716Z,67.90
2017-12-19T07:35:58.910Z,67.70
2017-12-19T07:38:25.863Z,66.10
2017-12-19T07:40:52.853Z,66.70
2017-12-19T07:43:19.077Z,66.70
2017-12-19T07:45:45.716Z,67.70
2017-12-19T07:48:11.889Z,68.70
2017-12-19T07:50:38.108Z,67.70
2017-12-19T07:53:04.389Z,67.60
2017-12-19T07:55:30.628Z,67.70
2017-12-19T07:57:56.857Z,68.10
2017-12-19T08:00:23.122Z,67.00
2017-12-19T08:02:49.300Z,67.30
2017-12-19T08:05:15.593Z,66.40
2017-12-19T08:07:42.524Z,66.30
2017-12-19T08:10:08.724Z,66.50
2017-12-19T08:12:34.957Z,67.50
2017-12-19T08:15:01.132Z,65.30
2017-12-19T08:17:28.098Z,67.40
2017-12-19T08:19:54.324Z,67.30
2017-12-19T08:22:20.509Z,66.30
2017-12-19T08:24:46.728Z,66.70
2017-12-19T08:27:12.871Z,66.00
2017-12-19T08:29:39.363Z,65.70
2017-12-19T08:32:05.513Z,66.10
2017-12-19T08:34:31.676Z,66.10
2017-12-19T08:36:58.551Z,64.40
2017-12-19T08:39:24.676Z,64.30
2017-12-19T08:41:50.862Z,66.20
2017-12-19T08:44:17.114Z,65.00
2017-12-19T08:46:43.335Z,65.20
2017-12-19T08:49:09.554Z,64.90
2017-12-19T08:51:36.452Z,65.40
2017-12-19T08:54:02.595Z,65.40
2017-12-19T08:56:28.783Z,65.30
2017-12-19T08:58:55.031Z,65.30
2017-12-19T09:01:21.226Z,65.40
2017-12-19T09:03:47.401Z,65.70
2017-12-19T09:06:14.114Z,65.60
2017-12-19T09:08:40.315Z,65.60
2017-12-19T09:11:06.461Z,65.40
2017-12-19T09:13:32.697Z,64.70
2017-12-19T09:15:58.885Z,65.50
2017-12-19T09:18:25.776Z,65.90
2017-12-19T09:20:52.006Z,65.90
2017-12-19T09:23:18.219Z,65.50
2017-12-19T09:25:44.798Z,65.50
2017-12-19T09:28:10.992Z,65.50
2017-12-19T09:30:37.135Z,64.70
2017-12-19T09:33:10.276Z,65.30
2017-12-19T09:35:36.743Z,63.80
2017-12-19T09:38:02.937Z,65.60
2017-12-19T09:40:29.851Z,66.20
2017-12-19T09:42:56.113Z,66.10
2017-12-19T09:45:22.313Z,66.60
2017-12-19T09:47:48.587Z,66.40
2017-12-19T09:50:14.763Z,68.10
2017-12-19T09:52:40.896Z,66.10
2017-12-19T09:55:07.063Z,66.60
2017-12-19T09:57:33.359Z,66.00
2017-12-19T09:59:59.537Z,65.50
2017-12-19T10:02:25.694Z,63.90
2017-12-19T10:04:52.187Z,65.40
2017-12-19T10:07:18.375Z,64.80
2017-12-19T10:09:44.573Z,66.70
2017-12-19T10:12:10.825Z,65.60
2017-12-19T10:14:37.035Z,65.40
2017-12-19T10:17:03.216Z,66.60
2017-12-19T10:19:29.417Z,66.20
2017-12-19T10:21:56.434Z,65.90
2017-12-19T10:24:22.720Z,65.90
2017-12-19T10:26:48.944Z,65.60
2017-12-19T10:29:15.100Z,65.10
2017-12-19T10:31:41.275Z,63.40
2017-12-19T10:34:08.236Z,58.20
2017-12-19T10:36:35.180Z,56.60
2017-12-19T10:39:01.406Z,56.60
2017-12-19T10:41:28.426Z,52.40
2017-12-19T10:43:54.669Z,53.20
2017-12-19T10:46:21.576Z,47.70
2017-12-19T10:48:47.755Z,47.70
2017-12-19T10:51:14.707Z,46.60
2017-12-19T10:53:40.832Z,46.50
2017-12-19T10:56:07.741Z,44.20
2017-12-19T10:58:33.943Z,44.20
2017-12-19T11:01:07.110Z,46.60
2017-12-19T11:03:33.330Z,44.60
2017-12-19T11:05:59.562Z,43.30
2017-12-19T11:08:25.768Z,41.10
2017-12-19T11:10:52.668Z,44.90
2017-12-19T11:13:18.855Z,44.80
2017-12-19T11:15:45.005Z,45.50
2017-12-19T11:18:11.177Z,45.90
2017-12-19T11:20:37.400Z,40.40
2017-12-19T11:23:03.591Z,40.50
2017-12-19T11:25:29.829Z,43.60
2017-12-19T11:27:56.094Z,46.30
2017-12-19T11:30:23.124Z,51.80
2017-12-19T11:32:49.328Z,51.80
2017-12-19T11:35:15.592Z,46.50
2017-12-19T11:37:42.151Z,47.20
2017-12-19T11:40:09.069Z,41.60
2017-12-19T11:42:35.288Z,41.50
2017-12-19T11:45:01.483Z,40.70
2017-12-19T11:47:27.700Z,41.10
2017-12-19T11:49:53.920Z,39.80
2017-12-19T11:52:20.117Z,39.80
2017-12-19T11:54:46.272Z,35.40
2017-12-19T11:57:12.470Z,39.00
2017-12-19T11:59:38.741Z,38.90
2017-12-19T12:02:04.971Z,31.50
2017-12-19T12:04:31.188Z,34.00
2017-12-19T12:06:57.429Z,36.10
2017-12-19T12:09:23.662Z,36.50
2017-12-19T12:11:49.828Z,36.90
2017-12-19T12:14:16.256Z,37.40
2017-12-19T12:16:42.418Z,33.10
2017-12-19T12:19:09.278Z,35.00
2017-12-19T12:21:35.469Z,35.10
2017-12-19T12:24:01.698Z,31.40
2017-12-19T12:26:28.728Z,41.00
2017-12-19T12:28:54.941Z,40.50
2017-12-19T12:31:21.202Z,44.70
2017-12-19T12:33:48.187Z,45.60
2017-12-19T12:36:14.453Z,45.60
2017-12-19T12:38:40.687Z,51.10
2017-12-19T12:41:06.878Z,49.60
2017-12-19T12:43:33.075Z,51.80
2017-12-19T12:46:00.048Z,52.80
2017-12-19T12:48:26.240Z,52.80
2017-12-19T12:50:53.166Z,52.20
2017-12-19T12:53:19.328Z,52.20
2017-12-19T12:55:46.320Z,51.70
2017-12-19T12:58:12.622Z,51.70
2017-12-19T13:00:38.890Z,51.80
2017-12-19T13:03:05.236Z,51.70
2017-12-19T13:05:31.481Z,51.30
2017-12-19T13:07:58.532Z,52.00
2017-12-19T13:10:25.424Z,51.30
2017-12-19T13:12:51.696Z,51.40
2017-12-19T13:15:18.664Z,50.60
2017-12-19T13:17:44.871Z,50.70
2017-12-19T13:20:11.763Z,52.30
2017-12-19T13:22:37.956Z,52.30
2017-12-19T13:25:04.893Z,54.70
2017-12-19T13:27:31.830Z,53.90
2017-12-19T13:29:58.742Z,54.20
2017-12-19T13:32:24.932Z,54.20
2017-12-19T13:34:51.158Z,54.00
2017-12-19T13:37:18.037Z,55.20
2017-12-19T13:39:44.213Z,55.10
2017-12-19T13:42:11.185Z,54.70
2017-12-19T13:44:37.325Z,54.80
2017-12-19T13:47:03.564Z,54.40
2017-12-19T13:49:29.745Z,54.50
2017-12-19T13:51:56.640Z,55.70
2017-12-19T13:54:22.820Z,55.70
2017-12-19T13:56:49.004Z,55.00
2017-12-19T13:59:15.268Z,54.60
2017-12-19T14:01:42.194Z,56.10
2017-12-19T14:04:08.399Z,56.10
2017-12-19T14:06:34.644Z,56.10
2017-12-19T14:09:00.868Z,56.10
2017-12-19T14:11:27.007Z,55.50
2017-12-19T14:13:53.175Z,56.00
2017-12-19T14:16:19.357Z,55.20
2017-12-19T14:18:52.440Z,57.30
2017-12-19T14:21:18.580Z,56.90
2017-12-19T14:23:44.799Z,56.40
2017-12-19T14:26:10.992Z,55.90
2017-12-19T14:28:37.986Z,57.40
2017-12-19T14:31:04.903Z,57.10
2017-12-19T14:33:31.075Z,57.10
2017-12-19T14:35:58.059Z,58.50
2017-12-19T14:38:24.251Z,58.60
2017-12-19T14:40:50.490Z,58.30
2017-12-19T14:43:16.645Z,57.60
2017-12-19T14:45:43.087Z,59.40
2017-12-19T14:48:09.361Z,58.50
2017-12-19T14:50:35.523Z,57.80
2017-12-19T14:53:01.714Z,60.90
2017-12-19T14:55:28.314Z,59.60
2017-12-19T14:57:54.818Z,58.30
2017-12-19T15:00:20.984Z,59.50
2017-12-19T15:02:47.194Z,59.30
2017-12-19T15:05:13.376Z,59.40
2017-12-19T15:07:40.304Z,59.10
2017-12-19T15:10:07.248Z,58.60
2017-12-19T15:12:34.195Z,59.20
2017-12-19T15:15:01.098Z,59.40
2017-12-19T15:17:27.284Z,59.40
2017-12-19T15:19:53.447Z,59.50
2017-12-19T15:22:19.650Z,59.80
2017-12-19T15:24:45.829Z,61.10
2017-12-19T15:27:12.000Z,59.30
2017-12-19T15:29:38.176Z,59.50
2017-12-19T15:32:04.382Z,59.40
2017-12-19T15:34:30.549Z,60.00
2017-12-19T15:36:56.695Z,63.70
2017-12-19T15:39:23.698Z,62.70
2017-12-19T15:41:49.853Z,62.60
2017-12-19T15:44:16.795Z,62.40
2017-12-19T15:46:43.056Z,62.00
2017-12-19T15:49:09.251Z,61.90
2017-12-19T15:51:36.199Z,62.10
2017-12-19T15:54:03.146Z,61.80
2017-12-19T15:56:30.082Z,62.10
2017-12-19T15:58:56.235Z,62.10
2017-12-19T16:01:22.398Z,61.00
2017-12-19T16:03:48.579Z,61.90
2017-12-19T16:06:14.747Z,62.00
2017-12-19T16:08:40.989Z,61.70
2017-12-19T16:11:07.209Z,63.90
2017-12-19T16:13:33.410Z,63.30
2017-12-19T16:16:06.569Z,63.20
2017-12-19T16:18:33.514Z,63.40
2017-12-19T16:21:00.470Z,62.40
2017-12-19T16:23:27.397Z,62.40
2017-12-19T16:25:53.536Z,62.40
2017-12-19T16:28:20.464Z,61.40
2017-12-19T16:30:46.613Z,61.40
2017-12-19T16:33:13.544Z,65.00
2017-12-19T16:35:40.454Z,65.00
2017-12-19T16:38:06.719Z,64.80
2017-12-19T16:40:33.627Z,63.90
2017-12-19T16:42:59.837Z,63.70
2017-12-19T16:45:26.083Z,65.30
2017-12-19T16:47:52.287Z,65.40
2017-12-19T16:50:18.516Z,65.70
2017-12-19T16:52:45.616Z,65.80
2017-12-19T16:55:11.836Z,66.80
2017-12-19T16:57:38.034Z,66.20
2017-12-19T17:00:04.270Z,64.00
2017-12-19T17:02:30.460Z,67.10
2017-12-19T17:04:57.320Z,67.40
2017-12-19T17:07:23.540Z,67.30
2017-12-19T17:09:49.776Z,68.10
2017-12-19T17:12:15.996Z,68.60
2017-12-19T17:14:42.218Z,68.50
2017-12-19T17:17:08.381Z,67.20
2017-12-19T17:19:34.613Z,69.00
2017-12-19T17:22:00.834Z,68.50
2017-12-19T17:24:27.075Z,68.90
2017-12-19T17:26:53.243Z,68.10
2017-12-19T17:29:20.185Z,69.00
2017-12-19T17:31:47.113Z,71.50
2017-12-19T17:34:13.289Z,71.50
2017-12-19T17:36:39.522Z,71.20
2017-12-19T17:39:05.748Z,71.20
2017-12-19T17:41:31.920Z,72.00
2017-12-19T17:43:58.136Z,72.30
2017-12-19T17:46:24.359Z,71.50
2017-12-19T17:48:50.582Z,73.10
2017-12-19T17:51:16.848Z,73.10
2017-12-19T17:53:43.016Z,73.10
2017-12-19T17:56:09.210Z,74.80
2017-12-19T17:58:36.140Z,74.70
2017-12-19T18:01:02.263Z,74.60
2017-12-19T18:03:28.423Z,74.90
2017-12-19T18:05:54.717Z,74.60
2017-12-19T18:08:21.685Z,74.10
2017-12-19T18:10:48.590Z,74.40
2017-12-19T18:13:14.795Z,74.40
2017-12-19T18:15:41.023Z,74.90
2017-12-19T18:18:07.243Z,74.00
2017-12-19T18:20:33.443Z,75.00
2017-12-19T18:23:00.377Z,74.30
2017-12-19T18:25:26.591Z,74.30
2017-12-19T18:27:52.815Z,75.70
2017-12-19T18:30:19.043Z,74.60
2017-12-19T18:32:45.296Z,74.80
2017-12-19T18:35:12.257Z,76.40
2017-12-19T18:37:38.574Z,76.40
2017-12-19T18:40:05.529Z,75.60
2017-12-19T18:42:31.735Z,75.60
2017-12-19T18:44:58.000Z,75.10
2017-12-19T18:47:24.140Z,75.70
2017-12-19T18:49:50.338Z,77.10
2017-12-19T18:52:17.271Z,75.30
2017-12-19T18:54:44.216Z,76.60
2017-12-19T18:57:11.214Z,75.60
2017-12-19T18:59:37.531Z,75.60
2017-12-19T19:02:03.761Z,77.40
2017-12-19T19:04:30.015Z,77.30
2017-12-19T19:06:56.183Z,74.90
2017-12-19T19:09:23.149Z,76.40
2017-12-19T19:11:49.363Z,76.40
2017-12-19T19:14:16.294Z,77.10
2017-12-19T19:16:43.224Z,76.80
2017-12-19T19:19:10.279Z,76.70
2017-12-19T19:21:36.479Z,76.90
2017-12-19T19:24:02.712Z,76.40
2017-12-19T19:26:28.951Z,76.20
2017-12-19T19:28:55.171Z,77.80
2017-12-19T19:31:21.404Z,77.50
2017-12-19T19:33:47.892Z,77.20
2017-12-19T19:36:14.326Z,77.60
2017-12-19T19:38:40.904Z,76.50
2017-12-19T19:41:07.204Z,74.90
2017-12-19T19:43:33.530Z,76.50
2017-12-19T19:45:59.718Z,74.80
2017-12-19T19:48:25.988Z,76.60
2017-12-19T19:50:52.176Z,76.30
2017-12-19T19:53:19.155Z,75.10
2017-12-19T19:55:45.339Z,75.10
2017-12-19T19:58:11.488Z,76.50
2017-12-19T20:00:38.419Z,77.40
2017-12-19T20:03:05.336Z,76.30
2017-12-19T20:05:31.562Z,76.20
2017-12-19T20:07:57.777Z,77.80
2017-12-19T20:10:24.031Z,76.60
2017-12-19T20:12:50.228Z,76.00
2017-12-19T20:15:16.433Z,76.60
2017-12-19T20:17:42.719Z,76.70
2017-12-19T20:20:08.933Z,75.40
2017-12-19T20:22:35.124Z,76.30
2017-12-19T20:25:01.286Z,75.90
2017-12-19T20:27:27.456Z,77.00
2017-12-19T20:29:54.378Z,78.00
2017-12-19T20:32:21.275Z,78.00
2017-12-19T20:34:47.455Z,77.50
2017-12-19T20:37:14.391Z,77.80
2017-12-19T20:39:40.659Z,77.80
2017-12-19T20:42:06.780Z,76.10
2017-12-19T20:44:33.768Z,76.70
2017-12-19T20:46:59.999Z,76.70
2017-12-19T20:49:26.226Z,76.00
2017-12-19T20:51:52.485Z,75.50
2017-12-19T20:54:18.714Z,75.40
2017-12-19T20:56:44.915Z,75.50
2017-12-19T20:59:11.110Z,74.60
2017-12-19T21:01:37.355Z,74.80
2017-12-19T21:04:03.526Z,73.90
2017-12-19T21:06:29.727Z,75.00
2017-12-19T21:08:55.995Z,75.20
2017-12-19T21:11:22.934Z,74.80
2017-12-19T21:13:49.907Z,74.70
2017-12-19T21:16:16.103Z,74.70
2017-12-19T21:18:42.314Z,74.60
2017-12-19T21:21:08.499Z,76.00
2017-12-19T21:23:34.720Z,74.70
2017-12-19T21:26:00.890Z,75.60
2017-12-19T21:28:27.047Z,74.70
2017-12-19T21:30:54.002Z,75.30
2017-12-19T21:33:20.919Z,75.20
2017-12-19T21:35:47.160Z,75.10
2017-12-19T21:38:14.185Z,75.00
2017-12-19T21:40:41.169Z,75.00
2017-12-19T21:43:09.220Z,73.00
2017-12-19T21:45:35.429Z,73.00
2017-12-19T21:48:04.245Z,73.20
2017-12-19T21:50:31.143Z,75.30
2017-12-19T21:52:57.296Z,75.30
2017-12-19T21:55:23.453Z,74.80
2017-12-19T21:57:49.726Z,74.30
2017-12-19T22:00:15.934Z,73.60
2017-12-19T22:02:42.128Z,73.10
2017-12-19T22:05:09.128Z,73.40
2017-12-19T22:07:35.364Z,73.30
2017-12-19T22:10:01.597Z,73.90
2017-12-19T22:12:27.810Z,71.90
2017-12-19T22:14:54.045Z,74.20
2017-12-19T22:17:20.241Z,75.00
2017-12-19T22:19:46.438Z,73.60
2017-12-19T22:22:13.383Z,73.30
2017-12-19T22:24:39.553Z,73.20
2017-12-19T22:27:05.772Z,74.50
2017-12-19T22:29:31.957Z,74.30
2017-12-19T22:31:58.155Z,73.60
2017-12-19T22:34:24.307Z,73.90
2017-12-19T22:36:50.467Z,73.80
2017-12-19T22:39:17.364Z,72.10
2017-12-19T22:41:43.562Z,72.10
2017-12-19T22:44:09.724Z,74.70
2017-12-19T22:46:35.903Z,74.20
2017-12-19T22:49:02.080Z,74.40
2017-12-19T22:51:28.237Z,73.50
2017-12-19T22:53:55.132Z,73.80
2017-12-19T22:56:21.310Z,73.80
2017-12-19T22:58:48.279Z,73.60
2017-12-19T23:01:14.435Z,73.60
2017-12-19T23:03:40.622Z,73.80
2017-12-19T23:06:06.864Z,74.00
2017-12-19T23:08:33.087Z,73.90
2017-12-19T23:10:59.275Z,73.70
2017-12-19T23:13:25.514Z,73.70
2017-12-19T23:15:52.435Z,73.80
2017-12-19T23:18:18.629Z,73.80
2017-12-19T23:20:44.805Z,73.60
2017-12-19T23:23:11.024Z,73.90
2017-12-19T23:25:37.193Z,74.20
2017-12-19T23:28:03.374Z,72.90
2017-12-19T23:30:29.562Z,73.40
2017-12-19T23:32:55.744Z,73.30
2017-12-19T23:35:21.967Z,73.20
2017-12-19T23:37:48.887Z,74.30
2017-12-19T23:40:15.123Z,74.90
2017-12-19T23:42:41.356Z,73.90
2017-12-19T23:45:07.582Z,74.00
2017-12-19T23:47:33.790Z,73.90
2017-12-19T23:49:59.963Z,73.80
2017-12-19T23:52:26.881Z,75.30
2017-12-19T23:54:53.067Z,75.30
2017-12-19T23:57:19.280Z,74.20
2017-12-19T23:59:45.481Z,74.30
